sensor_id;sensor_type;location;lat;lon;timestamp;P1;durP1;ratioP1;P2;durP2;ratioP2
36585;SDS011;22591;48.314;11.562;2023-07-13T00:00:28;54.58;;;49.85;;
36585;SDS011;22591;48.314;11.562;2023-07-13T00:02:54;56.42;;;51.65;;
36585;SDS011;22591;48.314;11.562;2023-07-13T00:05:20;50.42;;;46.05;;
36585;SDS011;22591;48.314;11.562;2023-07-13T00:07:46;48.70;;;44.60;;
36585;SDS011;22591;48.314;11.562;2023-07-13T00:10:13;47.33;;;43.63;;
36585;SDS011;22591;48.314;11.562;2023-07-13T00:12:39;49.25;;;44.95;;
36585;SDS011;22591;48.314;11.562;2023-07-13T00:15:06;48.65;;;44.45;;
36585;SDS011;22591;48.314;11.562;2023-07-13T00:17:37;48.38;;;44.72;;
36585;SDS011;22591;48.314;11.562;2023-07-13T00:20:04;47.28;;;43.45;;
36585;SDS011;22591;48.314;11.562;2023-07-13T00:22:30;45.17;;;41.72;;
36585;SDS011;22591;48.314;11.562;2023-07-13T00:24:56;45.35;;;42.05;;
36585;SDS011;22591;48.314;11.562;2023-07-13T00:27:22;48.17;;;44.72;;
36585;SDS011;22591;48.314;11.562;2023-07-13T00:29:48;45.40;;;42.25;;
36585;SDS011;22591;48.314;11.562;2023-07-13T00:32:14;50.67;;;46.40;;
36585;SDS011;22591;48.314;11.562;2023-07-13T00:34:39;51.65;;;47.35;;
36585;SDS011;22591;48.314;11.562;2023-07-13T00:37:06;46.78;;;43.38;;
36585;SDS011;22591;48.314;11.562;2023-07-13T00:39:32;47.63;;;43.67;;
36585;SDS011;22591;48.314;11.562;2023-07-13T00:42:00;48.92;;;44.90;;
36585;SDS011;22591;48.314;11.562;2023-07-13T00:44:26;45.28;;;41.97;;
36585;SDS011;22591;48.314;11.562;2023-07-13T00:46:51;42.20;;;39.33;;
36585;SDS011;22591;48.314;11.562;2023-07-13T00:49:18;47.50;;;44.00;;
36585;SDS011;22591;48.314;11.562;2023-07-13T00:51:48;42.97;;;39.65;;
36585;SDS011;22591;48.314;11.562;2023-07-13T00:54:24;46.28;;;42.88;;
36585;SDS011;22591;48.314;11.562;2023-07-13T00:56:55;43.13;;;40.05;;
36585;SDS011;22591;48.314;11.562;2023-07-13T00:59:24;44.88;;;41.67;;
36585;SDS011;22591;48.314;11.562;2023-07-13T01:01:50;42.58;;;39.67;;
36585;SDS011;22591;48.314;11.562;2023-07-13T01:04:16;45.00;;;41.63;;
36585;SDS011;22591;48.314;11.562;2023-07-13T01:06:43;43.97;;;40.88;;
36585;SDS011;22591;48.314;11.562;2023-07-13T01:09:09;42.42;;;39.72;;
36585;SDS011;22591;48.314;11.562;2023-07-13T01:11:36;44.85;;;41.55;;
36585;SDS011;22591;48.314;11.562;2023-07-13T01:14:02;48.40;;;44.95;;
36585;SDS011;22591;48.314;11.562;2023-07-13T01:16:29;44.85;;;41.47;;
36585;SDS011;22591;48.314;11.562;2023-07-13T01:18:57;47.03;;;43.13;;
36585;SDS011;22591;48.314;11.562;2023-07-13T01:21:23;44.10;;;40.95;;
36585;SDS011;22591;48.314;11.562;2023-07-13T01:23:49;44.63;;;41.15;;
36585;SDS011;22591;48.314;11.562;2023-07-13T01:26:15;44.08;;;40.97;;
36585;SDS011;22591;48.314;11.562;2023-07-13T01:28:41;43.35;;;40.55;;
36585;SDS011;22591;48.314;11.562;2023-07-13T01:31:07;43.70;;;40.85;;
36585;SDS011;22591;48.314;11.562;2023-07-13T01:33:34;45.05;;;42.08;;
36585;SDS011;22591;48.314;11.562;2023-07-13T01:36:01;47.40;;;44.00;;
36585;SDS011;22591;48.314;11.562;2023-07-13T01:38:27;39.95;;;37.58;;
36585;SDS011;22591;48.314;11.562;2023-07-13T01:40:52;36.80;;;34.47;;
36585;SDS011;22591;48.314;11.562;2023-07-13T01:43:18;35.63;;;33.42;;
36585;SDS011;22591;48.314;11.562;2023-07-13T01:45:44;40.50;;;38.00;;
36585;SDS011;22591;48.314;11.562;2023-07-13T01:48:10;36.22;;;33.97;;
36585;SDS011;22591;48.314;11.562;2023-07-13T01:50:36;39.22;;;36.38;;
36585;SDS011;22591;48.314;11.562;2023-07-13T01:53:02;45.03;;;41.80;;
36585;SDS011;22591;48.314;11.562;2023-07-13T01:55:29;43.20;;;40.35;;
36585;SDS011;22591;48.314;11.562;2023-07-13T01:57:55;43.92;;;41.03;;
36585;SDS011;22591;48.314;11.562;2023-07-13T02:00:21;47.60;;;44.13;;
36585;SDS011;22591;48.314;11.562;2023-07-13T02:02:46;44.97;;;41.83;;
36585;SDS011;22591;48.314;11.562;2023-07-13T02:05:12;48.65;;;45.20;;
36585;SDS011;22591;48.314;11.562;2023-07-13T02:07:38;47.95;;;44.70;;
36585;SDS011;22591;48.314;11.562;2023-07-13T02:10:05;49.05;;;45.65;;
36585;SDS011;22591;48.314;11.562;2023-07-13T02:12:32;45.78;;;42.70;;
36585;SDS011;22591;48.314;11.562;2023-07-13T02:14:57;50.45;;;45.90;;
36585;SDS011;22591;48.314;11.562;2023-07-13T02:17:23;47.60;;;43.72;;
36585;SDS011;22591;48.314;11.562;2023-07-13T02:19:49;49.08;;;45.28;;
36585;SDS011;22591;48.314;11.562;2023-07-13T02:22:14;50.28;;;46.17;;
36585;SDS011;22591;48.314;11.562;2023-07-13T02:24:40;50.45;;;46.50;;
36585;SDS011;22591;48.314;11.562;2023-07-13T02:27:05;52.97;;;48.55;;
36585;SDS011;22591;48.314;11.562;2023-07-13T02:29:31;51.88;;;47.55;;
36585;SDS011;22591;48.314;11.562;2023-07-13T02:31:57;49.00;;;45.25;;
36585;SDS011;22591;48.314;11.562;2023-07-13T02:34:22;55.58;;;51.10;;
36585;SDS011;22591;48.314;11.562;2023-07-13T02:36:48;52.08;;;48.00;;
36585;SDS011;22591;48.314;11.562;2023-07-13T02:39:14;51.13;;;47.17;;
36585;SDS011;22591;48.314;11.562;2023-07-13T02:41:40;51.95;;;47.65;;
36585;SDS011;22591;48.314;11.562;2023-07-13T02:44:05;50.75;;;46.80;;
36585;SDS011;22591;48.314;11.562;2023-07-13T02:46:33;53.80;;;49.50;;
36585;SDS011;22591;48.314;11.562;2023-07-13T02:49:00;53.15;;;48.67;;
36585;SDS011;22591;48.314;11.562;2023-07-13T02:51:26;50.72;;;46.55;;
36585;SDS011;22591;48.314;11.562;2023-07-13T02:53:52;52.05;;;47.72;;
36585;SDS011;22591;48.314;11.562;2023-07-13T02:56:21;53.38;;;48.83;;
36585;SDS011;22591;48.314;11.562;2023-07-13T02:58:48;52.95;;;48.45;;
36585;SDS011;22591;48.314;11.562;2023-07-13T03:01:14;55.80;;;50.80;;
36585;SDS011;22591;48.314;11.562;2023-07-13T03:03:43;55.85;;;50.97;;
36585;SDS011;22591;48.314;11.562;2023-07-13T03:06:12;56.85;;;51.85;;
36585;SDS011;22591;48.314;11.562;2023-07-13T03:08:38;55.88;;;51.05;;
36585;SDS011;22591;48.314;11.562;2023-07-13T03:11:05;58.50;;;53.17;;
36585;SDS011;22591;48.314;11.562;2023-07-13T03:13:33;59.97;;;54.97;;
36585;SDS011;22591;48.314;11.562;2023-07-13T03:15:59;59.60;;;54.15;;
36585;SDS011;22591;48.314;11.562;2023-07-13T03:18:26;57.78;;;52.95;;
36585;SDS011;22591;48.314;11.562;2023-07-13T03:20:52;61.55;;;56.08;;
36585;SDS011;22591;48.314;11.562;2023-07-13T03:23:19;57.38;;;52.38;;
36585;SDS011;22591;48.314;11.562;2023-07-13T03:25:45;59.75;;;54.65;;
36585;SDS011;22591;48.314;11.562;2023-07-13T03:28:11;60.50;;;55.47;;
36585;SDS011;22591;48.314;11.562;2023-07-13T03:30:37;59.60;;;54.67;;
36585;SDS011;22591;48.314;11.562;2023-07-13T03:33:04;58.63;;;53.13;;
36585;SDS011;22591;48.314;11.562;2023-07-13T03:35:30;56.85;;;51.95;;
36585;SDS011;22591;48.314;11.562;2023-07-13T03:37:57;57.60;;;52.78;;
36585;SDS011;22591;48.314;11.562;2023-07-13T03:40:24;57.42;;;52.90;;
36585;SDS011;22591;48.314;11.562;2023-07-13T03:42:51;57.25;;;52.75;;
36585;SDS011;22591;48.314;11.562;2023-07-13T03:45:17;54.38;;;49.97;;
36585;SDS011;22591;48.314;11.562;2023-07-13T03:47:42;56.47;;;51.67;;
36585;SDS011;22591;48.314;11.562;2023-07-13T03:50:08;56.53;;;52.10;;
36585;SDS011;22591;48.314;11.562;2023-07-13T03:52:34;54.83;;;50.58;;
36585;SDS011;22591;48.314;11.562;2023-07-13T03:55:00;55.30;;;50.92;;
36585;SDS011;22591;48.314;11.562;2023-07-13T03:57:25;52.85;;;49.13;;
36585;SDS011;22591;48.314;11.562;2023-07-13T03:59:51;54.20;;;49.97;;
36585;SDS011;22591;48.314;11.562;2023-07-13T04:02:17;52.35;;;48.55;;
36585;SDS011;22591;48.314;11.562;2023-07-13T04:04:42;52.38;;;48.30;;
36585;SDS011;22591;48.314;11.562;2023-07-13T04:07:08;53.60;;;49.70;;
36585;SDS011;22591;48.314;11.562;2023-07-13T04:09:34;54.42;;;50.38;;
36585;SDS011;22591;48.314;11.562;2023-07-13T04:12:00;55.75;;;51.78;;
36585;SDS011;22591;48.314;11.562;2023-07-13T04:14:26;52.20;;;48.70;;
36585;SDS011;22591;48.314;11.562;2023-07-13T04:16:52;53.17;;;49.38;;
36585;SDS011;22591;48.314;11.562;2023-07-13T04:19:19;51.00;;;47.60;;
36585;SDS011;22591;48.314;11.562;2023-07-13T04:21:45;53.72;;;49.83;;
36585;SDS011;22591;48.314;11.562;2023-07-13T04:24:11;50.65;;;47.03;;
36585;SDS011;22591;48.314;11.562;2023-07-13T04:26:36;53.15;;;49.60;;
36585;SDS011;22591;48.314;11.562;2023-07-13T04:29:03;53.88;;;50.28;;
36585;SDS011;22591;48.314;11.562;2023-07-13T04:31:29;55.63;;;51.67;;
36585;SDS011;22591;48.314;11.562;2023-07-13T04:33:55;55.67;;;51.90;;
36585;SDS011;22591;48.314;11.562;2023-07-13T04:36:21;54.33;;;50.75;;
36585;SDS011;22591;48.314;11.562;2023-07-13T04:38:47;51.53;;;47.95;;
36585;SDS011;22591;48.314;11.562;2023-07-13T04:41:14;54.63;;;51.00;;
36585;SDS011;22591;48.314;11.562;2023-07-13T04:43:40;53.10;;;49.60;;
36585;SDS011;22591;48.314;11.562;2023-07-13T04:46:06;52.35;;;48.97;;
36585;SDS011;22591;48.314;11.562;2023-07-13T04:48:34;52.58;;;49.17;;
36585;SDS011;22591;48.314;11.562;2023-07-13T04:51:00;50.67;;;47.65;;
36585;SDS011;22591;48.314;11.562;2023-07-13T04:53:26;52.80;;;49.50;;
36585;SDS011;22591;48.314;11.562;2023-07-13T04:55:53;48.50;;;45.65;;
36585;SDS011;22591;48.314;11.562;2023-07-13T04:58:18;40.63;;;38.08;;
36585;SDS011;22591;48.314;11.562;2023-07-13T05:00:44;42.53;;;39.83;;
36585;SDS011;22591;48.314;11.562;2023-07-13T05:03:09;34.83;;;32.78;;
36585;SDS011;22591;48.314;11.562;2023-07-13T05:05:35;45.92;;;42.95;;
36585;SDS011;22591;48.314;11.562;2023-07-13T05:08:00;44.33;;;41.42;;
36585;SDS011;22591;48.314;11.562;2023-07-13T05:10:27;46.70;;;44.05;;
36585;SDS011;22591;48.314;11.562;2023-07-13T05:12:52;53.78;;;50.55;;
36585;SDS011;22591;48.314;11.562;2023-07-13T05:15:20;42.15;;;39.67;;
36585;SDS011;22591;48.314;11.562;2023-07-13T05:17:47;41.92;;;39.22;;
36585;SDS011;22591;48.314;11.562;2023-07-13T05:20:13;36.50;;;34.35;;
36585;SDS011;22591;48.314;11.562;2023-07-13T05:22:39;31.75;;;29.92;;
36585;SDS011;22591;48.314;11.562;2023-07-13T05:25:06;26.92;;;24.95;;
36585;SDS011;22591;48.314;11.562;2023-07-13T05:27:32;34.92;;;32.83;;
36585;SDS011;22591;48.314;11.562;2023-07-13T05:29:59;39.13;;;36.17;;
36585;SDS011;22591;48.314;11.562;2023-07-13T05:32:25;29.98;;;27.77;;
36585;SDS011;22591;48.314;11.562;2023-07-13T05:34:51;30.35;;;28.45;;
36585;SDS011;22591;48.314;11.562;2023-07-13T05:37:16;19.83;;;18.63;;
36585;SDS011;22591;48.314;11.562;2023-07-13T05:39:42;18.15;;;16.60;;
36585;SDS011;22591;48.314;11.562;2023-07-13T05:42:08;30.20;;;28.70;;
36585;SDS011;22591;48.314;11.562;2023-07-13T05:44:33;26.20;;;24.65;;
36585;SDS011;22591;48.314;11.562;2023-07-13T05:46:59;26.13;;;24.58;;
36585;SDS011;22591;48.314;11.562;2023-07-13T05:49:24;25.58;;;24.08;;
36585;SDS011;22591;48.314;11.562;2023-07-13T05:51:50;20.35;;;18.80;;
36585;SDS011;22591;48.314;11.562;2023-07-13T05:54:15;17.48;;;16.42;;
36585;SDS011;22591;48.314;11.562;2023-07-13T05:56:41;12.73;;;11.93;;
36585;SDS011;22591;48.314;11.562;2023-07-13T05:59:07;9.75;;;8.90;;
36585;SDS011;22591;48.314;11.562;2023-07-13T06:01:32;8.38;;;7.78;;
36585;SDS011;22591;48.314;11.562;2023-07-13T06:03:58;5.45;;;5.03;;
36585;SDS011;22591;48.314;11.562;2023-07-13T06:06:23;5.53;;;4.80;;
36585;SDS011;22591;48.314;11.562;2023-07-13T06:08:49;5.30;;;4.32;;
36585;SDS011;22591;48.314;11.562;2023-07-13T06:11:19;7.72;;;4.43;;
36585;SDS011;22591;48.314;11.562;2023-07-13T06:13:46;5.95;;;4.65;;
36585;SDS011;22591;48.314;11.562;2023-07-13T06:16:11;6.32;;;4.13;;
36585;SDS011;22591;48.314;11.562;2023-07-13T06:18:38;6.95;;;3.50;;
36585;SDS011;22591;48.314;11.562;2023-07-13T06:21:08;6.07;;;3.17;;
36585;SDS011;22591;48.314;11.562;2023-07-13T06:23:39;4.63;;;3.50;;
36585;SDS011;22591;48.314;11.562;2023-07-13T06:26:05;6.28;;;3.20;;
36585;SDS011;22591;48.314;11.562;2023-07-13T06:28:31;3.40;;;3.10;;
36585;SDS011;22591;48.314;11.562;2023-07-13T06:30:58;5.95;;;2.88;;
36585;SDS011;22591;48.314;11.562;2023-07-13T06:33:25;5.47;;;2.75;;
36585;SDS011;22591;48.314;11.562;2023-07-13T06:35:51;10.00;;;3.65;;
36585;SDS011;22591;48.314;11.562;2023-07-13T06:38:17;7.55;;;2.97;;
36585;SDS011;22591;48.314;11.562;2023-07-13T06:40:42;9.70;;;2.63;;
36585;SDS011;22591;48.314;11.562;2023-07-13T06:43:08;6.72;;;2.72;;
36585;SDS011;22591;48.314;11.562;2023-07-13T06:45:39;4.97;;;2.60;;
36585;SDS011;22591;48.314;11.562;2023-07-13T06:48:06;7.00;;;2.55;;
36585;SDS011;22591;48.314;11.562;2023-07-13T06:50:32;3.53;;;2.60;;
36585;SDS011;22591;48.314;11.562;2023-07-13T06:52:59;6.35;;;3.25;;
36585;SDS011;22591;48.314;11.562;2023-07-13T06:55:24;6.65;;;3.15;;
36585;SDS011;22591;48.314;11.562;2023-07-13T06:57:50;7.25;;;2.58;;
36585;SDS011;22591;48.314;11.562;2023-07-13T07:00:16;5.88;;;3.08;;
36585;SDS011;22591;48.314;11.562;2023-07-13T07:02:42;6.47;;;2.75;;
36585;SDS011;22591;48.314;11.562;2023-07-13T07:05:07;4.47;;;2.60;;
36585;SDS011;22591;48.314;11.562;2023-07-13T07:07:33;6.80;;;2.97;;
36585;SDS011;22591;48.314;11.562;2023-07-13T07:09:58;4.13;;;2.90;;
36585;SDS011;22591;48.314;11.562;2023-07-13T07:12:24;4.78;;;3.10;;
36585;SDS011;22591;48.314;11.562;2023-07-13T07:14:49;4.47;;;2.30;;
36585;SDS011;22591;48.314;11.562;2023-07-13T07:17:15;5.82;;;2.70;;
36585;SDS011;22591;48.314;11.562;2023-07-13T07:19:40;3.67;;;2.60;;
36585;SDS011;22591;48.314;11.562;2023-07-13T07:22:06;8.02;;;2.85;;
36585;SDS011;22591;48.314;11.562;2023-07-13T07:24:32;7.70;;;3.53;;
36585;SDS011;22591;48.314;11.562;2023-07-13T07:26:57;6.55;;;2.60;;
36585;SDS011;22591;48.314;11.562;2023-07-13T07:29:23;3.80;;;2.70;;
36585;SDS011;22591;48.314;11.562;2023-07-13T07:31:51;4.25;;;2.85;;
36585;SDS011;22591;48.314;11.562;2023-07-13T07:34:17;7.03;;;3.05;;
36585;SDS011;22591;48.314;11.562;2023-07-13T07:36:42;7.40;;;3.20;;
36585;SDS011;22591;48.314;11.562;2023-07-13T07:39:08;9.32;;;2.40;;
36585;SDS011;22591;48.314;11.562;2023-07-13T07:41:33;7.28;;;2.70;;
36585;SDS011;22591;48.314;11.562;2023-07-13T07:43:59;3.85;;;2.42;;
36585;SDS011;22591;48.314;11.562;2023-07-13T07:46:24;6.38;;;2.70;;
36585;SDS011;22591;48.314;11.562;2023-07-13T07:48:50;2.85;;;2.65;;
36585;SDS011;22591;48.314;11.562;2023-07-13T07:51:15;4.80;;;2.83;;
36585;SDS011;22591;48.314;11.562;2023-07-13T07:53:41;4.95;;;2.53;;
36585;SDS011;22591;48.314;11.562;2023-07-13T07:56:07;6.45;;;2.67;;
36585;SDS011;22591;48.314;11.562;2023-07-13T07:58:33;3.95;;;2.40;;
36585;SDS011;22591;48.314;11.562;2023-07-13T08:01:02;3.30;;;2.47;;
36585;SDS011;22591;48.314;11.562;2023-07-13T08:03:29;5.25;;;2.78;;
36585;SDS011;22591;48.314;11.562;2023-07-13T08:05:55;7.18;;;2.60;;
36585;SDS011;22591;48.314;11.562;2023-07-13T08:08:20;3.75;;;2.65;;
36585;SDS011;22591;48.314;11.562;2023-07-13T08:10:46;5.25;;;2.80;;
36585;SDS011;22591;48.314;11.562;2023-07-13T08:13:11;4.95;;;2.53;;
36585;SDS011;22591;48.314;11.562;2023-07-13T08:15:37;8.90;;;2.47;;
36585;SDS011;22591;48.314;11.562;2023-07-13T08:18:02;4.07;;;2.50;;
36585;SDS011;22591;48.314;11.562;2023-07-13T08:20:28;4.57;;;2.40;;
36585;SDS011;22591;48.314;11.562;2023-07-13T08:22:53;5.63;;;2.65;;
36585;SDS011;22591;48.314;11.562;2023-07-13T08:25:19;4.43;;;2.28;;
36585;SDS011;22591;48.314;11.562;2023-07-13T08:27:45;6.95;;;2.80;;
36585;SDS011;22591;48.314;11.562;2023-07-13T08:30:11;4.43;;;2.08;;
36585;SDS011;22591;48.314;11.562;2023-07-13T08:32:37;4.63;;;2.10;;
36585;SDS011;22591;48.314;11.562;2023-07-13T08:35:03;4.47;;;2.05;;
36585;SDS011;22591;48.314;11.562;2023-07-13T08:37:29;4.10;;;2.25;;
36585;SDS011;22591;48.314;11.562;2023-07-13T08:39:55;4.10;;;2.25;;
36585;SDS011;22591;48.314;11.562;2023-07-13T08:42:24;5.38;;;2.65;;
36585;SDS011;22591;48.314;11.562;2023-07-13T08:47:39;2.30;;;2.08;;
36585;SDS011;22591;48.314;11.562;2023-07-13T08:50:27;2.75;;;1.90;;
36585;SDS011;22591;48.314;11.562;2023-07-13T08:52:55;5.22;;;1.92;;
36585;SDS011;22591;48.314;11.562;2023-07-13T08:55:33;5.47;;;2.30;;
36585;SDS011;22591;48.314;11.562;2023-07-13T08:58:09;4.15;;;2.42;;
36585;SDS011;22591;48.314;11.562;2023-07-13T09:00:45;4.47;;;1.88;;
36585;SDS011;22591;48.314;11.562;2023-07-13T09:03:23;7.07;;;2.03;;
36585;SDS011;22591;48.314;11.562;2023-07-13T09:05:57;2.33;;;2.03;;
36585;SDS011;22591;48.314;11.562;2023-07-13T09:08:37;2.92;;;2.00;;
36585;SDS011;22591;48.314;11.562;2023-07-13T09:11:18;6.05;;;1.80;;
36585;SDS011;22591;48.314;11.562;2023-07-13T09:14:10;2.95;;;1.95;;
36585;SDS011;22591;48.314;11.562;2023-07-13T09:16:51;6.32;;;2.10;;
36585;SDS011;22591;48.314;11.562;2023-07-13T09:19:21;3.85;;;2.08;;
36585;SDS011;22591;48.314;11.562;2023-07-13T09:21:53;4.80;;;2.20;;
36585;SDS011;22591;48.314;11.562;2023-07-13T09:26:58;4.80;;;2.00;;
36585;SDS011;22591;48.314;11.562;2023-07-13T09:29:32;3.88;;;1.98;;
36585;SDS011;22591;48.314;11.562;2023-07-13T09:32:03;3.40;;;2.20;;
36585;SDS011;22591;48.314;11.562;2023-07-13T09:34:34;8.82;;;2.15;;
36585;SDS011;22591;48.314;11.562;2023-07-13T09:36:59;5.95;;;1.70;;
36585;SDS011;22591;48.314;11.562;2023-07-13T09:39:26;6.72;;;2.08;;
36585;SDS011;22591;48.314;11.562;2023-07-13T09:42:05;6.97;;;1.98;;
36585;SDS011;22591;48.314;11.562;2023-07-13T09:44:50;4.82;;;1.70;;
36585;SDS011;22591;48.314;11.562;2023-07-13T09:47:17;4.72;;;1.75;;
36585;SDS011;22591;48.314;11.562;2023-07-13T09:49:46;7.93;;;1.77;;
36585;SDS011;22591;48.314;11.562;2023-07-13T09:52:12;3.45;;;1.63;;
36585;SDS011;22591;48.314;11.562;2023-07-13T09:54:43;3.20;;;2.33;;
36585;SDS011;22591;48.314;11.562;2023-07-13T09:57:14;4.93;;;1.92;;
36585;SDS011;22591;48.314;11.562;2023-07-13T09:59:47;1.92;;;1.67;;
36585;SDS011;22591;48.314;11.562;2023-07-13T10:02:30;3.78;;;1.73;;
36585;SDS011;22591;48.314;11.562;2023-07-13T10:05:02;4.07;;;1.92;;
36585;SDS011;22591;48.314;11.562;2023-07-13T10:07:30;3.35;;;1.90;;
36585;SDS011;22591;48.314;11.562;2023-07-13T10:09:57;3.05;;;2.08;;
36585;SDS011;22591;48.314;11.562;2023-07-13T10:12:26;2.63;;;1.67;;
36585;SDS011;22591;48.314;11.562;2023-07-13T10:14:54;2.63;;;1.70;;
36585;SDS011;22591;48.314;11.562;2023-07-13T10:17:25;2.75;;;1.83;;
36585;SDS011;22591;48.314;11.562;2023-07-13T10:19:55;4.78;;;2.15;;
36585;SDS011;22591;48.314;11.562;2023-07-13T10:25:23;2.78;;;2.08;;
36585;SDS011;22591;48.314;11.562;2023-07-13T10:27:53;3.25;;;1.83;;
36585;SDS011;22591;48.314;11.562;2023-07-13T10:30:24;5.82;;;2.58;;
36585;SDS011;22591;48.314;11.562;2023-07-13T10:33:04;3.88;;;2.05;;
36585;SDS011;22591;48.314;11.562;2023-07-13T10:35:36;3.97;;;2.45;;
36585;SDS011;22591;48.314;11.562;2023-07-13T10:38:07;6.75;;;2.10;;
36585;SDS011;22591;48.314;11.562;2023-07-13T10:40:41;7.05;;;2.60;;
36585;SDS011;22591;48.314;11.562;2023-07-13T10:43:20;3.13;;;2.20;;
36585;SDS011;22591;48.314;11.562;2023-07-13T10:45:51;4.03;;;2.20;;
36585;SDS011;22591;48.314;11.562;2023-07-13T10:48:19;3.15;;;2.08;;
36585;SDS011;22591;48.314;11.562;2023-07-13T10:50:48;2.13;;;1.92;;
36585;SDS011;22591;48.314;11.562;2023-07-13T10:53:21;4.25;;;2.13;;
36585;SDS011;22591;48.314;11.562;2023-07-13T10:55:56;3.25;;;1.92;;
36585;SDS011;22591;48.314;11.562;2023-07-13T11:01:08;3.63;;;1.95;;
36585;SDS011;22591;48.314;11.562;2023-07-13T11:09:07;5.18;;;1.55;;
36585;SDS011;22591;48.314;11.562;2023-07-13T11:11:44;3.30;;;2.10;;
36585;SDS011;22591;48.314;11.562;2023-07-13T11:16:53;5.32;;;1.80;;
36585;SDS011;22591;48.314;11.562;2023-07-13T11:30:18;1.73;;;1.50;;
36585;SDS011;22591;48.314;11.562;2023-07-13T11:32:45;3.97;;;1.80;;
36585;SDS011;22591;48.314;11.562;2023-07-13T11:35:32;6.18;;;2.05;;
36585;SDS011;22591;48.314;11.562;2023-07-13T11:38:01;5.47;;;1.83;;
36585;SDS011;22591;48.314;11.562;2023-07-13T11:40:34;2.97;;;1.63;;
36585;SDS011;22591;48.314;11.562;2023-07-13T11:43:00;2.28;;;1.48;;
36585;SDS011;22591;48.314;11.562;2023-07-13T11:45:26;3.90;;;1.73;;
36585;SDS011;22591;48.314;11.562;2023-07-13T11:47:53;3.88;;;2.05;;
36585;SDS011;22591;48.314;11.562;2023-07-13T11:50:20;2.72;;;1.58;;
36585;SDS011;22591;48.314;11.562;2023-07-13T11:52:47;4.07;;;2.00;;
36585;SDS011;22591;48.314;11.562;2023-07-13T11:55:16;4.50;;;1.85;;
36585;SDS011;22591;48.314;11.562;2023-07-13T11:57:47;5.20;;;1.92;;
36585;SDS011;22591;48.314;11.562;2023-07-13T12:00:22;6.10;;;1.98;;
36585;SDS011;22591;48.314;11.562;2023-07-13T12:02:52;2.97;;;1.40;;
36585;SDS011;22591;48.314;11.562;2023-07-13T12:05:20;2.65;;;1.77;;
36585;SDS011;22591;48.314;11.562;2023-07-13T12:07:47;3.17;;;1.95;;
36585;SDS011;22591;48.314;11.562;2023-07-13T12:13:02;6.50;;;1.70;;
36585;SDS011;22591;48.314;11.562;2023-07-13T12:15:38;5.27;;;1.47;;
36585;SDS011;22591;48.314;11.562;2023-07-13T12:18:14;1.67;;;1.58;;
36585;SDS011;22591;48.314;11.562;2023-07-13T12:20:46;15.48;;;2.10;;
36585;SDS011;22591;48.314;11.562;2023-07-13T12:23:22;4.97;;;1.67;;
36585;SDS011;22591;48.314;11.562;2023-07-13T12:25:50;1.27;;;1.17;;
36585;SDS011;22591;48.314;11.562;2023-07-13T12:28:28;1.42;;;1.33;;
36585;SDS011;22591;48.314;11.562;2023-07-13T12:30:59;1.95;;;1.30;;
36585;SDS011;22591;48.314;11.562;2023-07-13T12:33:29;2.00;;;1.67;;
36585;SDS011;22591;48.314;11.562;2023-07-13T12:35:57;2.10;;;1.30;;
36585;SDS011;22591;48.314;11.562;2023-07-13T12:38:27;3.25;;;1.30;;
36585;SDS011;22591;48.314;11.562;2023-07-13T12:40:53;2.58;;;1.85;;
36585;SDS011;22591;48.314;11.562;2023-07-13T12:43:20;4.47;;;1.70;;
36585;SDS011;22591;48.314;11.562;2023-07-13T12:46:21;2.05;;;1.40;;
36585;SDS011;22591;48.314;11.562;2023-07-13T12:48:40;3.65;;;1.52;;
36585;SDS011;22591;48.314;11.562;2023-07-13T12:51:08;3.85;;;1.88;;
36585;SDS011;22591;48.314;11.562;2023-07-13T12:53:38;1.60;;;1.50;;
36585;SDS011;22591;48.314;11.562;2023-07-13T12:56:08;5.50;;;1.75;;
36585;SDS011;22591;48.314;11.562;2023-07-13T12:58:42;1.58;;;1.48;;
36585;SDS011;22591;48.314;11.562;2023-07-13T13:01:09;4.05;;;1.38;;
36585;SDS011;22591;48.314;11.562;2023-07-13T13:03:44;3.80;;;1.33;;
36585;SDS011;22591;48.314;11.562;2023-07-13T13:08:43;4.28;;;1.70;;
36585;SDS011;22591;48.314;11.562;2023-07-13T13:11:10;1.70;;;1.50;;
36585;SDS011;22591;48.314;11.562;2023-07-13T13:13:36;8.82;;;1.70;;
36585;SDS011;22591;48.314;11.562;2023-07-13T13:18:39;2.55;;;1.83;;
36585;SDS011;22591;48.314;11.562;2023-07-13T13:21:04;3.85;;;1.90;;
36585;SDS011;22591;48.314;11.562;2023-07-13T13:23:30;3.05;;;1.80;;
36585;SDS011;22591;48.314;11.562;2023-07-13T13:25:56;2.35;;;1.73;;
36585;SDS011;22591;48.314;11.562;2023-07-13T13:28:23;2.17;;;1.60;;
36585;SDS011;22591;48.314;11.562;2023-07-13T13:30:49;3.35;;;1.70;;
36585;SDS011;22591;48.314;11.562;2023-07-13T13:33:17;4.57;;;1.83;;
36585;SDS011;22591;48.314;11.562;2023-07-13T13:35:44;2.17;;;1.50;;
36585;SDS011;22591;48.314;11.562;2023-07-13T13:38:11;3.00;;;1.65;;
36585;SDS011;22591;48.314;11.562;2023-07-13T13:40:39;2.30;;;1.20;;
36585;SDS011;22591;48.314;11.562;2023-07-13T13:43:14;3.42;;;1.42;;
36585;SDS011;22591;48.314;11.562;2023-07-13T13:45:57;5.22;;;1.92;;
36585;SDS011;22591;48.314;11.562;2023-07-13T13:48:33;5.43;;;2.20;;
36585;SDS011;22591;48.314;11.562;2023-07-13T13:51:01;4.32;;;1.65;;
36585;SDS011;22591;48.314;11.562;2023-07-13T13:53:34;4.05;;;1.80;;
36585;SDS011;22591;48.314;11.562;2023-07-13T13:56:01;1.88;;;1.20;;
36585;SDS011;22591;48.314;11.562;2023-07-13T13:58:26;4.53;;;1.58;;
36585;SDS011;22591;48.314;11.562;2023-07-13T14:00:52;2.40;;;1.40;;
36585;SDS011;22591;48.314;11.562;2023-07-13T14:03:18;2.83;;;1.70;;
36585;SDS011;22591;48.314;11.562;2023-07-13T14:05:45;2.78;;;1.48;;
36585;SDS011;22591;48.314;11.562;2023-07-13T14:08:12;4.05;;;1.45;;
36585;SDS011;22591;48.314;11.562;2023-07-13T14:10:40;3.75;;;1.50;;
36585;SDS011;22591;48.314;11.562;2023-07-13T14:13:07;2.22;;;1.48;;
36585;SDS011;22591;48.314;11.562;2023-07-13T14:15:52;1.60;;;1.30;;
36585;SDS011;22591;48.314;11.562;2023-07-13T14:18:18;2.30;;;1.63;;
36585;SDS011;22591;48.314;11.562;2023-07-13T14:20:44;2.67;;;1.50;;
36585;SDS011;22591;48.314;11.562;2023-07-13T14:23:12;1.60;;;1.50;;
36585;SDS011;22591;48.314;11.562;2023-07-13T14:25:38;4.25;;;1.63;;
36585;SDS011;22591;48.314;11.562;2023-07-13T14:28:10;2.05;;;1.50;;
36585;SDS011;22591;48.314;11.562;2023-07-13T14:30:43;2.08;;;1.60;;
36585;SDS011;22591;48.314;11.562;2023-07-13T14:33:09;6.65;;;1.60;;
36585;SDS011;22591;48.314;11.562;2023-07-13T14:35:36;4.28;;;1.58;;
36585;SDS011;22591;48.314;11.562;2023-07-13T14:38:02;2.63;;;1.77;;
36585;SDS011;22591;48.314;11.562;2023-07-13T14:40:30;1.65;;;1.17;;
36585;SDS011;22591;48.314;11.562;2023-07-13T14:42:56;3.63;;;1.58;;
36585;SDS011;22591;48.314;11.562;2023-07-13T14:45:22;6.93;;;1.67;;
36585;SDS011;22591;48.314;11.562;2023-07-13T14:47:49;1.92;;;1.42;;
36585;SDS011;22591;48.314;11.562;2023-07-13T14:50:16;3.42;;;1.40;;
36585;SDS011;22591;48.314;11.562;2023-07-13T14:52:45;2.53;;;1.63;;
36585;SDS011;22591;48.314;11.562;2023-07-13T14:55:12;2.28;;;1.70;;
36585;SDS011;22591;48.314;11.562;2023-07-13T14:57:40;1.75;;;1.50;;
36585;SDS011;22591;48.314;11.562;2023-07-13T15:00:26;2.90;;;1.50;;
36585;SDS011;22591;48.314;11.562;2023-07-13T15:02:53;4.13;;;1.70;;
36585;SDS011;22591;48.314;11.562;2023-07-13T15:05:22;2.45;;;1.63;;